sensor_id;sensor_type;location;lat;lon;timestamp;P1;P2;P0
47079;PMS5003;33067;49.296;14.470;2023-12-20T00:01:26;112;96;
47079;PMS5003;33067;49.296;14.470;2023-12-20T00:03:52;99;94;
47079;PMS5003;33067;49.296;14.470;2023-12-20T00:06:17;95;87;
47079;PMS5003;33067;49.296;14.470;2023-12-20T00:08:43;87;78;
47079;PMS5003;33067;49.296;14.470;2023-12-20T00:11:08;100;95;
47079;PMS5003;33067;49.296;14.470;2023-12-20T00:13:33;95;88;
47079;PMS5003;33067;49.296;14.470;2023-12-20T00:15:59;107;98;
47079;PMS5003;33067;49.296;14.470;2023-12-20T00:18:25;87;79;
47079;PMS5003;33067;49.296;14.470;2023-12-20T00:20:50;58;56;
47079;PMS5003;33067;49.296;14.470;2023-12-20T00:23:16;73;67;
47079;PMS5003;33067;49.296;14.470;2023-12-20T00:25:41;86;82;
47079;PMS5003;33067;49.296;14.470;2023-12-20T00:28:06;77;69;
47079;PMS5003;33067;49.296;14.470;2023-12-20T00:30:31;60;59;
47079;PMS5003;33067;49.296;14.470;2023-12-20T00:32:56;61;56;
47079;PMS5003;33067;49.296;14.470;2023-12-20T00:35:22;60;57;
47079;PMS5003;33067;49.296;14.470;2023-12-20T00:37:47;72;63;
47079;PMS5003;33067;49.296;14.470;2023-12-20T00:40:12;74;68;
47079;PMS5003;33067;49.296;14.470;2023-12-20T00:42:37;62;56;
47079;PMS5003;33067;49.296;14.470;2023-12-20T00:45:03;95;80;
47079;PMS5003;33067;49.296;14.470;2023-12-20T00:47:28;77;73;
47079;PMS5003;33067;49.296;14.470;2023-12-20T00:49:53;78;70;
47079;PMS5003;33067;49.296;14.470;2023-12-20T00:52:19;90;81;
47079;PMS5003;33067;49.296;14.470;2023-12-20T00:54:45;82;74;
47079;PMS5003;33067;49.296;14.470;2023-12-20T00:57:10;73;68;
47079;PMS5003;33067;49.296;14.470;2023-12-20T00:59:35;72;67;
47079;PMS5003;33067;49.296;14.470;2023-12-20T01:02:01;77;71;
47079;PMS5003;33067;49.296;14.470;2023-12-20T01:04:27;86;78;
47079;PMS5003;33067;49.296;14.470;2023-12-20T01:06:54;95;83;
47079;PMS5003;33067;49.296;14.470;2023-12-20T01:09:18;82;80;
47079;PMS5003;33067;49.296;14.470;2023-12-20T01:11:43;96;90;
47079;PMS5003;33067;49.296;14.470;2023-12-20T01:14:09;83;77;
47079;PMS5003;33067;49.296;14.470;2023-12-20T01:16:34;84;73;
47079;PMS5003;33067;49.296;14.470;2023-12-20T01:18:59;76;69;
47079;PMS5003;33067;49.296;14.470;2023-12-20T01:21:25;91;77;
47079;PMS5003;33067;49.296;14.470;2023-12-20T01:23:50;79;75;
47079;PMS5003;33067;49.296;14.470;2023-12-20T01:26:15;74;70;
47079;PMS5003;33067;49.296;14.470;2023-12-20T01:28:41;72;66;
47079;PMS5003;33067;49.296;14.470;2023-12-20T01:31:06;71;66;
47079;PMS5003;33067;49.296;14.470;2023-12-20T01:33:32;81;76;
47079;PMS5003;33067;49.296;14.470;2023-12-20T01:35:57;78;67;
47079;PMS5003;33067;49.296;14.470;2023-12-20T01:38:23;77;68;
47079;PMS5003;33067;49.296;14.470;2023-12-20T01:40:48;79;74;
47079;PMS5003;33067;49.296;14.470;2023-12-20T01:43:13;72;64;
47079;PMS5003;33067;49.296;14.470;2023-12-20T01:45:39;58;55;
47079;PMS5003;33067;49.296;14.470;2023-12-20T01:48:05;67;59;
47079;PMS5003;33067;49.296;14.470;2023-12-20T01:50:30;71;61;
47079;PMS5003;33067;49.296;14.470;2023-12-20T01:52:55;64;60;
47079;PMS5003;33067;49.296;14.470;2023-12-20T01:55:21;64;55;
47079;PMS5003;33067;49.296;14.470;2023-12-20T01:57:46;42;34;
47079;PMS5003;33067;49.296;14.470;2023-12-20T02:00:11;36;33;
47079;PMS5003;33067;49.296;14.470;2023-12-20T02:02:36;34;33;
47079;PMS5003;33067;49.296;14.470;2023-12-20T02:05:02;48;42;
47079;PMS5003;33067;49.296;14.470;2023-12-20T02:07:27;36;32;
47079;PMS5003;33067;49.296;14.470;2023-12-20T02:09:52;48;41;
47079;PMS5003;33067;49.296;14.470;2023-12-20T02:12:18;45;41;
47079;PMS5003;33067;49.296;14.470;2023-12-20T02:14:44;42;40;
47079;PMS5003;33067;49.296;14.470;2023-12-20T02:17:09;38;37;
47079;PMS5003;33067;49.296;14.470;2023-12-20T02:19:34;29;26;
47079;PMS5003;33067;49.296;14.470;2023-12-20T02:22:06;27;25;
47079;PMS5003;33067;49.296;14.470;2023-12-20T02:24:25;30;27;
47079;PMS5003;33067;49.296;14.470;2023-12-20T02:26:51;36;30;
47079;PMS5003;33067;49.296;14.470;2023-12-20T02:29:17;44;42;
47079;PMS5003;33067;49.296;14.470;2023-12-20T02:31:42;37;32;
47079;PMS5003;33067;49.296;14.470;2023-12-20T02:34:07;52;49;
47079;PMS5003;33067;49.296;14.470;2023-12-20T02:36:33;53;53;
47079;PMS5003;33067;49.296;14.470;2023-12-20T02:38:58;46;44;
47079;PMS5003;33067;49.296;14.470;2023-12-20T02:41:24;48;44;
47079;PMS5003;33067;49.296;14.470;2023-12-20T02:43:50;48;43;
47079;PMS5003;33067;49.296;14.470;2023-12-20T02:46:15;34;30;
47079;PMS5003;33067;49.296;14.470;2023-12-20T02:48:40;40;37;
47079;PMS5003;33067;49.296;14.470;2023-12-20T02:51:06;46;41;
47079;PMS5003;33067;49.296;14.470;2023-12-20T02:53:31;38;36;
47079;PMS5003;33067;49.296;14.470;2023-12-20T02:55:57;37;35;
47079;PMS5003;33067;49.296;14.470;2023-12-20T02:58:22;38;31;
47079;PMS5003;33067;49.296;14.470;2023-12-20T03:00:47;32;30;
47079;PMS5003;33067;49.296;14.470;2023-12-20T03:03:13;27;21;
47079;PMS5003;33067;49.296;14.470;2023-12-20T03:05:38;25;24;
47079;PMS5003;33067;49.296;14.470;2023-12-20T03:08:04;21;19;
47079;PMS5003;33067;49.296;14.470;2023-12-20T03:13:00;27;25;
47079;PMS5003;33067;49.296;14.470;2023-12-20T03:15:25;26;25;
47079;PMS5003;33067;49.296;14.470;2023-12-20T03:17:51;24;24;
47079;PMS5003;33067;49.296;14.470;2023-12-20T03:20:16;24;19;
47079;PMS5003;33067;49.296;14.470;2023-12-20T03:22:42;37;36;
47079;PMS5003;33067;49.296;14.470;2023-12-20T03:25:08;35;34;
47079;PMS5003;33067;49.296;14.470;2023-12-20T03:27:33;19;15;
47079;PMS5003;33067;49.296;14.470;2023-12-20T03:29:59;25;25;
47079;PMS5003;33067;49.296;14.470;2023-12-20T03:32:24;15;13;
47079;PMS5003;33067;49.296;14.470;2023-12-20T03:34:49;16;14;
47079;PMS5003;33067;49.296;14.470;2023-12-20T03:37:15;12;12;
47079;PMS5003;33067;49.296;14.470;2023-12-20T03:39:40;14;11;
47079;PMS5003;33067;49.296;14.470;2023-12-20T03:42:05;12;12;
47079;PMS5003;33067;49.296;14.470;2023-12-20T03:44:31;10;10;
47079;PMS5003;33067;49.296;14.470;2023-12-20T03:46:56;9;9;
47079;PMS5003;33067;49.296;14.470;2023-12-20T03:49:21;10;9;
47079;PMS5003;33067;49.296;14.470;2023-12-20T03:51:47;12;10;
47079;PMS5003;33067;49.296;14.470;2023-12-20T03:54:12;18;18;
47079;PMS5003;33067;49.296;14.470;2023-12-20T03:56:38;18;18;
47079;PMS5003;33067;49.296;14.470;2023-12-20T03:59:03;8;8;
47079;PMS5003;33067;49.296;14.470;2023-12-20T04:01:29;11;8;
47079;PMS5003;33067;49.296;14.470;2023-12-20T04:03:54;9;9;
47079;PMS5003;33067;49.296;14.470;2023-12-20T04:06:20;8;8;
47079;PMS5003;33067;49.296;14.470;2023-12-20T04:08:45;18;15;
47079;PMS5003;33067;49.296;14.470;2023-12-20T04:11:10;10;9;
47079;PMS5003;33067;49.296;14.470;2023-12-20T04:13:36;7;7;
47079;PMS5003;33067;49.296;14.470;2023-12-20T04:16:01;10;8;
47079;PMS5003;33067;49.296;14.470;2023-12-20T04:18:27;7;7;
47079;PMS5003;33067;49.296;14.470;2023-12-20T04:20:52;5;5;
47079;PMS5003;33067;49.296;14.470;2023-12-20T04:23:18;6;6;
47079;PMS5003;33067;49.296;14.470;2023-12-20T04:25:43;3;3;
47079;PMS5003;33067;49.296;14.470;2023-12-20T04:28:08;6;6;
47079;PMS5003;33067;49.296;14.470;2023-12-20T04:30:34;7;3;
47079;PMS5003;33067;49.296;14.470;2023-12-20T04:32:59;7;7;
47079;PMS5003;33067;49.296;14.470;2023-12-20T04:35:24;4;4;
47079;PMS5003;33067;49.296;14.470;2023-12-20T04:37:50;2;2;
47079;PMS5003;33067;49.296;14.470;2023-12-20T04:40:16;13;10;
47079;PMS5003;33067;49.296;14.470;2023-12-20T04:42:41;10;10;
47079;PMS5003;33067;49.296;14.470;2023-12-20T04:45:07;9;8;
47079;PMS5003;33067;49.296;14.470;2023-12-20T04:47:32;21;16;
47079;PMS5003;33067;49.296;14.470;2023-12-20T04:49:57;10;10;
47079;PMS5003;33067;49.296;14.470;2023-12-20T04:52:23;12;12;
47079;PMS5003;33067;49.296;14.470;2023-12-20T04:54:48;8;8;
47079;PMS5003;33067;49.296;14.470;2023-12-20T04:57:14;4;4;
47079;PMS5003;33067;49.296;14.470;2023-12-20T04:59:39;3;3;
47079;PMS5003;33067;49.296;14.470;2023-12-20T05:02:05;3;3;
47079;PMS5003;33067;49.296;14.470;2023-12-20T05:04:30;4;4;
47079;PMS5003;33067;49.296;14.470;2023-12-20T05:06:56;19;19;
47079;PMS5003;33067;49.296;14.470;2023-12-20T05:09:21;15;15;
47079;PMS5003;33067;49.296;14.470;2023-12-20T05:11:47;2;2;
47079;PMS5003;33067;49.296;14.470;2023-12-20T05:14:12;3;3;
47079;PMS5003;33067;49.296;14.470;2023-12-20T05:16:37;4;3;
47079;PMS5003;33067;49.296;14.470;2023-12-20T05:19:03;9;7;
47079;PMS5003;33067;49.296;14.470;2023-12-20T05:21:29;8;7;
47079;PMS5003;33067;49.296;14.470;2023-12-20T05:23:54;7;7;
47079;PMS5003;33067;49.296;14.470;2023-12-20T05:26:19;9;9;
47079;PMS5003;33067;49.296;14.470;2023-12-20T05:28:45;6;6;
47079;PMS5003;33067;49.296;14.470;2023-12-20T05:31:10;35;31;
47079;PMS5003;33067;49.296;14.470;2023-12-20T05:33:36;18;14;
47079;PMS5003;33067;49.296;14.470;2023-12-20T05:36:02;14;12;
47079;PMS5003;33067;49.296;14.470;2023-12-20T05:38:27;12;12;
47079;PMS5003;33067;49.296;14.470;2023-12-20T05:40:52;6;6;
47079;PMS5003;33067;49.296;14.470;2023-12-20T05:43:18;7;7;
47079;PMS5003;33067;49.296;14.470;2023-12-20T05:45:43;8;7;
47079;PMS5003;33067;49.296;14.470;2023-12-20T05:48:09;6;6;
47079;PMS5003;33067;49.296;14.470;2023-12-20T05:50:34;3;3;
47079;PMS5003;33067;49.296;14.470;2023-12-20T05:53:00;3;3;
47079;PMS5003;33067;49.296;14.470;2023-12-20T05:55:25;3;3;
47079;PMS5003;33067;49.296;14.470;2023-12-20T05:57:51;3;3;
47079;PMS5003;33067;49.296;14.470;2023-12-20T06:00:16;3;3;
47079;PMS5003;33067;49.296;14.470;2023-12-20T06:02:42;3;3;
47079;PMS5003;33067;49.296;14.470;2023-12-20T06:05:07;3;3;
47079;PMS5003;33067;49.296;14.470;2023-12-20T06:07:33;1;1;
47079;PMS5003;33067;49.296;14.470;2023-12-20T06:09:58;3;3;
47079;PMS5003;33067;49.296;14.470;2023-12-20T06:12:24;3;3;
47079;PMS5003;33067;49.296;14.470;2023-12-20T06:14:49;2;2;
47079;PMS5003;33067;49.296;14.470;2023-12-20T06:17:15;4;4;
47079;PMS5003;33067;49.296;14.470;2023-12-20T06:19:40;3;3;
47079;PMS5003;33067;49.296;14.470;2023-12-20T06:22:06;3;3;
47079;PMS5003;33067;49.296;14.470;2023-12-20T06:24:31;2;2;
47079;PMS5003;33067;49.296;14.470;2023-12-20T06:26:57;2;2;
47079;PMS5003;33067;49.296;14.470;2023-12-20T06:29:22;2;2;
47079;PMS5003;33067;49.296;14.470;2023-12-20T06:31:47;1;1;
47079;PMS5003;33067;49.296;14.470;2023-12-20T06:34:13;4;3;
47079;PMS5003;33067;49.296;14.470;2023-12-20T06:36:38;7;7;
47079;PMS5003;33067;49.296;14.470;2023-12-20T06:39:04;14;12;
47079;PMS5003;33067;49.296;14.470;2023-12-20T06:41:30;15;13;
47079;PMS5003;33067;49.296;14.470;2023-12-20T06:43:55;6;4;
47079;PMS5003;33067;49.296;14.470;2023-12-20T06:46:20;3;3;
47079;PMS5003;33067;49.296;14.470;2023-12-20T06:48:46;9;8;
47079;PMS5003;33067;49.296;14.470;2023-12-20T06:51:12;3;3;
47079;PMS5003;33067;49.296;14.470;2023-12-20T06:53:37;12;9;
47079;PMS5003;33067;49.296;14.470;2023-12-20T06:56:03;17;15;
47079;PMS5003;33067;49.296;14.470;2023-12-20T06:58:28;31;29;
47079;PMS5003;33067;49.296;14.470;2023-12-20T07:00:54;11;10;
47079;PMS5003;33067;49.296;14.470;2023-12-20T07:03:19;10;8;
47079;PMS5003;33067;49.296;14.470;2023-12-20T07:05:44;9;7;
47079;PMS5003;33067;49.296;14.470;2023-12-20T07:08:10;7;7;
47079;PMS5003;33067;49.296;14.470;2023-12-20T07:10:35;7;6;
47079;PMS5003;33067;49.296;14.470;2023-12-20T07:13:01;3;3;
47079;PMS5003;33067;49.296;14.470;2023-12-20T07:15:26;3;3;
47079;PMS5003;33067;49.296;14.470;2023-12-20T07:17:52;6;4;
47079;PMS5003;33067;49.296;14.470;2023-12-20T07:20:17;3;3;
47079;PMS5003;33067;49.296;14.470;2023-12-20T07:22:43;3;3;
47079;PMS5003;33067;49.296;14.470;2023-12-20T07:25:08;3;3;
47079;PMS5003;33067;49.296;14.470;2023-12-20T07:27:34;3;2;
47079;PMS5003;33067;49.296;14.470;2023-12-20T07:29:59;6;4;
47079;PMS5003;33067;49.296;14.470;2023-12-20T07:32:25;8;4;
47079;PMS5003;33067;49.296;14.470;2023-12-20T07:34:50;3;2;
47079;PMS5003;33067;49.296;14.470;2023-12-20T07:37:16;2;2;
47079;PMS5003;33067;49.296;14.470;2023-12-20T07:39:41;6;2;
47079;PMS5003;33067;49.296;14.470;2023-12-20T07:42:07;6;6;
47079;PMS5003;33067;49.296;14.470;2023-12-20T07:44:32;6;6;
47079;PMS5003;33067;49.296;14.470;2023-12-20T07:46:58;3;3;
47079;PMS5003;33067;49.296;14.470;2023-12-20T07:49:23;6;4;
47079;PMS5003;33067;49.296;14.470;2023-12-20T07:51:49;3;1;
47079;PMS5003;33067;49.296;14.470;2023-12-20T07:54:15;2;2;
47079;PMS5003;33067;49.296;14.470;2023-12-20T07:56:40;4;3;
47079;PMS5003;33067;49.296;14.470;2023-12-20T07:59:05;7;7;
47079;PMS5003;33067;49.296;14.470;2023-12-20T08:01:31;3;3;
47079;PMS5003;33067;49.296;14.470;2023-12-20T08:03:56;6;6;
47079;PMS5003;33067;49.296;14.470;2023-12-20T08:06:21;12;9;
47079;PMS5003;33067;49.296;14.470;2023-12-20T08:08:47;4;4;
47079;PMS5003;33067;49.296;14.470;2023-12-20T08:11:12;4;4;
47079;PMS5003;33067;49.296;14.470;2023-12-20T08:13:38;8;8;
47079;PMS5003;33067;49.296;14.470;2023-12-20T08:16:04;3;3;
47079;PMS5003;33067;49.296;14.470;2023-12-20T08:18:29;4;4;
47079;PMS5003;33067;49.296;14.470;2023-12-20T08:20:54;7;4;
47079;PMS5003;33067;49.296;14.470;2023-12-20T08:23:20;3;3;
47079;PMS5003;33067;49.296;14.470;2023-12-20T08:25:45;6;4;
47079;PMS5003;33067;49.296;14.470;2023-12-20T08:28:11;4;4;
47079;PMS5003;33067;49.296;14.470;2023-12-20T08:30:37;3;3;
47079;PMS5003;33067;49.296;14.470;2023-12-20T08:33:02;3;3;
47079;PMS5003;33067;49.296;14.470;2023-12-20T08:35:27;3;2;
47079;PMS5003;33067;49.296;14.470;2023-12-20T08:37:53;4;4;
47079;PMS5003;33067;49.296;14.470;2023-12-20T08:40:19;4;3;
47079;PMS5003;33067;49.296;14.470;2023-12-20T08:42:44;4;3;
47079;PMS5003;33067;49.296;14.470;2023-12-20T08:45:10;4;3;
47079;PMS5003;33067;49.296;14.470;2023-12-20T08:47:35;4;4;
47079;PMS5003;33067;49.296;14.470;2023-12-20T08:50:00;2;2;
47079;PMS5003;33067;49.296;14.470;2023-12-20T08:52:26;4;2;
47079;PMS5003;33067;49.296;14.470;2023-12-20T08:54:51;3;3;
47079;PMS5003;33067;49.296;14.470;2023-12-20T08:57:17;4;4;
47079;PMS5003;33067;49.296;14.470;2023-12-20T08:59:42;4;4;
47079;PMS5003;33067;49.296;14.470;2023-12-20T09:02:08;3;3;
47079;PMS5003;33067;49.296;14.470;2023-12-20T09:04:34;2;2;
47079;PMS5003;33067;49.296;14.470;2023-12-20T09:06:59;2;2;
47079;PMS5003;33067;49.296;14.470;2023-12-20T09:09:24;3;3;
47079;PMS5003;33067;49.296;14.470;2023-12-20T09:11:50;3;3;
47079;PMS5003;33067;49.296;14.470;2023-12-20T09:14:15;1;1;
47079;PMS5003;33067;49.296;14.470;2023-12-20T09:16:41;2;2;
47079;PMS5003;33067;49.296;14.470;2023-12-20T09:19:06;1;1;
47079;PMS5003;33067;49.296;14.470;2023-12-20T09:21:32;2;2;
47079;PMS5003;33067;49.296;14.470;2023-12-20T09:23:57;4;2;
47079;PMS5003;33067;49.296;14.470;2023-12-20T09:26:23;3;2;
47079;PMS5003;33067;49.296;14.470;2023-12-20T09:28:49;4;4;
47079;PMS5003;33067;49.296;14.470;2023-12-20T09:31:14;3;3;
47079;PMS5003;33067;49.296;14.470;2023-12-20T09:33:39;2;2;
47079;PMS5003;33067;49.296;14.470;2023-12-20T09:36:05;2;2;
47079;PMS5003;33067;49.296;14.470;2023-12-20T09:38:30;4;2;
47079;PMS5003;33067;49.296;14.470;2023-12-20T09:40:56;1;1;
47079;PMS5003;33067;49.296;14.470;2023-12-20T09:43:23;2;2;
47079;PMS5003;33067;49.296;14.470;2023-12-20T09:45:47;3;2;
47079;PMS5003;33067;49.296;14.470;2023-12-20T09:48:13;3;2;
47079;PMS5003;33067;49.296;14.470;2023-12-20T09:50:38;2;2;
47079;PMS5003;33067;49.296;14.470;2023-12-20T09:53:04;2;2;
47079;PMS5003;33067;49.296;14.470;2023-12-20T09:55:29;1;1;
47079;PMS5003;33067;49.296;14.470;2023-12-20T09:57:54;4;4;
47079;PMS5003;33067;49.296;14.470;2023-12-20T10:00:20;3;2;
47079;PMS5003;33067;49.296;14.470;2023-12-20T10:02:50;4;4;
47079;PMS5003;33067;49.296;14.470;2023-12-20T10:05:11;7;7;
47079;PMS5003;33067;49.296;14.470;2023-12-20T10:07:37;9;9;
47079;PMS5003;33067;49.296;14.470;2023-12-20T10:10:02;16;12;
47079;PMS5003;33067;49.296;14.470;2023-12-20T10:12:28;18;13;
47079;PMS5003;33067;49.296;14.470;2023-12-20T10:14:53;46;40;
47079;PMS5003;33067;49.296;14.470;2023-12-20T10:17:19;36;33;
47079;PMS5003;33067;49.296;14.470;2023-12-20T10:19:44;10;8;
47079;PMS5003;33067;49.296;14.470;2023-12-20T10:22:10;6;6;
47079;PMS5003;33067;49.296;14.470;2023-12-20T10:24:35;12;9;
47079;PMS5003;33067;49.296;14.470;2023-12-20T10:27:01;3;3;
47079;PMS5003;33067;49.296;14.470;2023-12-20T10:29:26;2;2;
47079;PMS5003;33067;49.296;14.470;2023-12-20T10:31:52;3;3;
47079;PMS5003;33067;49.296;14.470;2023-12-20T10:34:17;2;2;
47079;PMS5003;33067;49.296;14.470;2023-12-20T10:36:45;1;1;
47079;PMS5003;33067;49.296;14.470;2023-12-20T10:39:08;2;1;
47079;PMS5003;33067;49.296;14.470;2023-12-20T10:41:34;2;2;
47079;PMS5003;33067;49.296;14.470;2023-12-20T10:44:00;3;3;
47079;PMS5003;33067;49.296;14.470;2023-12-20T10:46:25;3;3;
47079;PMS5003;33067;49.296;14.470;2023-12-20T10:48:50;3;3;
47079;PMS5003;33067;49.296;14.470;2023-12-20T10:51:17;4;4;
47079;PMS5003;33067;49.296;14.470;2023-12-20T10:53:41;6;6;
47079;PMS5003;33067;49.296;14.470;2023-12-20T10:56:07;4;4;
47079;PMS5003;33067;49.296;14.470;2023-12-20T10:58:32;4;4;
47079;PMS5003;33067;49.296;14.470;2023-12-20T11:00:59;3;3;
47079;PMS5003;33067;49.296;14.470;2023-12-20T11:03:23;6;6;
47079;PMS5003;33067;49.296;14.470;2023-12-20T11:05:50;15;12;
47079;PMS5003;33067;49.296;14.470;2023-12-20T11:08:16;19;18;
47079;PMS5003;33067;49.296;14.470;2023-12-20T11:10:41;50;48;
47079;PMS5003;33067;49.296;14.470;2023-12-20T11:13:06;17;14;
47079;PMS5003;33067;49.296;14.470;2023-12-20T11:15:30;35;35;
47079;PMS5003;33067;49.296;14.470;2023-12-20T11:17:56;22;18;
47079;PMS5003;33067;49.296;14.470;2023-12-20T11:20:22;9;7;
47079;PMS5003;33067;49.296;14.470;2023-12-20T11:22:53;6;6;
47079;PMS5003;33067;49.296;14.470;2023-12-20T11:25:13;4;4;
47079;PMS5003;33067;49.296;14.470;2023-12-20T11:27:40;7;4;
47079;PMS5003;33067;49.296;14.470;2023-12-20T11:30:04;6;6;
47079;PMS5003;33067;49.296;14.470;2023-12-20T11:32:29;6;6;
47079;PMS5003;33067;49.296;14.470;2023-12-20T11:34:55;7;7;
47079;PMS5003;33067;49.296;14.470;2023-12-20T11:37:20;8;6;
47079;PMS5003;33067;49.296;14.470;2023-12-20T11:39:47;9;9;
47079;PMS5003;33067;49.296;14.470;2023-12-20T11:42:12;7;7;
47079;PMS5003;33067;49.296;14.470;2023-12-20T11:44:37;10;10;
47079;PMS5003;33067;49.296;14.470;2023-12-20T11:47:02;9;9;
47079;PMS5003;33067;49.296;14.470;2023-12-20T11:49:28;70;70;
47079;PMS5003;33067;49.296;14.470;2023-12-20T11:51:53;27;27;
47079;PMS5003;33067;49.296;14.470;2023-12-20T11:54:18;15;15;
47079;PMS5003;33067;49.296;14.470;2023-12-20T11:56:44;32;32;
47079;PMS5003;33067;49.296;14.470;2023-12-20T11:59:09;36;36;
47079;PMS5003;33067;49.296;14.470;2023-12-20T12:01:35;58;57;
47079;PMS5003;33067;49.296;14.470;2023-12-20T12:04:03;65;63;
47079;PMS5003;33067;49.296;14.470;2023-12-20T12:06:25;18;17;
47079;PMS5003;33067;49.296;14.470;2023-12-20T12:08:51;16;14;
47079;PMS5003;33067;49.296;14.470;2023-12-20T12:11:16;14;14;
47079;PMS5003;33067;49.296;14.470;2023-12-20T12:13:41;16;16;
47079;PMS5003;33067;49.296;14.470;2023-12-20T12:16:07;19;18;
47079;PMS5003;33067;49.296;14.470;2023-12-20T12:18:33;9;9;
47079;PMS5003;33067;49.296;14.470;2023-12-20T12:21:01;14;12;
47079;PMS5003;33067;49.296;14.470;2023-12-20T12:23:24;19;17;
47079;PMS5003;33067;49.296;14.470;2023-12-20T12:25:49;12;8;
47079;PMS5003;33067;49.296;14.470;2023-12-20T12:28:15;15;15;
47079;PMS5003;33067;49.296;14.470;2023-12-20T12:30:40;9;8;
47079;PMS5003;33067;49.296;14.470;2023-12-20T12:33:05;10;10;
47079;PMS5003;33067;49.296;14.470;2023-12-20T12:35:31;8;8;
47079;PMS5003;33067;49.296;14.470;2023-12-20T12:37:58;4;4;
47079;PMS5003;33067;49.296;14.470;2023-12-20T12:40:22;9;9;
47079;PMS5003;33067;49.296;14.470;2023-12-20T12:42:48;14;14;
47079;PMS5003;33067;49.296;14.470;2023-12-20T12:45:13;8;8;
47079;PMS5003;33067;49.296;14.470;2023-12-20T12:47:39;7;7;
47079;PMS5003;33067;49.296;14.470;2023-12-20T12:50:04;7;7;
47079;PMS5003;33067;49.296;14.470;2023-12-20T12:52:30;6;6;
47079;PMS5003;33067;49.296;14.470;2023-12-20T12:54:55;9;9;
47079;PMS5003;33067;49.296;14.470;2023-12-20T12:57:20;10;10;
47079;PMS5003;33067;49.296;14.470;2023-12-20T12:59:46;4;4;
47079;PMS5003;33067;49.296;14.470;2023-12-20T13:02:11;7;6;
47079;PMS5003;33067;49.296;14.470;2023-12-20T13:04:37;6;6;
47079;PMS5003;33067;49.296;14.470;2023-12-20T13:07:01;51;44;
47079;PMS5003;33067;49.296;14.470;2023-12-20T13:09:27;8;8;
47079;PMS5003;33067;49.296;14.470;2023-12-20T13:11:52;2;2;
47079;PMS5003;33067;49.296;14.470;2023-12-20T13:14:18;2;2;
47079;PMS5003;33067;49.296;14.470;2023-12-20T13:16:43;2;2;
47079;PMS5003;33067;49.296;14.470;2023-12-20T13:19:09;3;3;
47079;PMS5003;33067;49.296;14.470;2023-12-20T13:21:34;7;6;
47079;PMS5003;33067;49.296;14.470;2023-12-20T13:24:00;8;7;
47079;PMS5003;33067;49.296;14.470;2023-12-20T13:26:25;9;8;
47079;PMS5003;33067;49.296;14.470;2023-12-20T13:28:51;12;12;
47079;PMS5003;33067;49.296;14.470;2023-12-20T13:31:16;13;13;
47079;PMS5003;33067;49.296;14.470;2023-12-20T13:33:42;6;6;
47079;PMS5003;33067;49.296;14.470;2023-12-20T13:36:07;12;12;
47079;PMS5003;33067;49.296;14.470;2023-12-20T13:38:32;8;8;
47079;PMS5003;33067;49.296;14.470;2023-12-20T13:40:58;12;8;
47079;PMS5003;33067;49.296;14.470;2023-12-20T13:43:24;7;7;
47079;PMS5003;33067;49.296;14.470;2023-12-20T13:45:49;8;8;
47079;PMS5003;33067;49.296;14.470;2023-12-20T13:48:14;7;7;
47079;PMS5003;33067;49.296;14.470;2023-12-20T13:50:40;4;4;
47079;PMS5003;33067;49.296;14.470;2023-12-20T13:53:05;8;8;
47079;PMS5003;33067;49.296;14.470;2023-12-20T13:55:31;13;12;
47079;PMS5003;33067;49.296;14.470;2023-12-20T13:57:59;4;4;
47079;PMS5003;33067;49.296;14.470;2023-12-20T14:00:22;9;9;
47079;PMS5003;33067;49.296;14.470;2023-12-20T14:02:47;12;8;
47079;PMS5003;33067;49.296;14.470;2023-12-20T14:05:13;23;18;
47079;PMS5003;33067;49.296;14.470;2023-12-20T14:07:38;17;17;
47079;PMS5003;33067;49.296;14.470;2023-12-20T14:10:05;44;42;
47079;PMS5003;33067;49.296;14.470;2023-12-20T14:12:29;52;51;
47079;PMS5003;33067;49.296;14.470;2023-12-20T14:14:55;37;37;
47079;PMS5003;33067;49.296;14.470;2023-12-20T14:17:20;26;25;
47079;PMS5003;33067;49.296;14.470;2023-12-20T14:19:45;40;37;
47079;PMS5003;33067;49.296;14.470;2023-12-20T14:22:11;38;38;
47079;PMS5003;33067;49.296;14.470;2023-12-20T14:24:36;25;21;
47079;PMS5003;33067;49.296;14.470;2023-12-20T14:27:02;12;12;
47079;PMS5003;33067;49.296;14.470;2023-12-20T14:29:27;7;4;
47079;PMS5003;33067;49.296;14.470;2023-12-20T14:31:53;4;4;
47079;PMS5003;33067;49.296;14.470;2023-12-20T14:34:18;8;8;
47079;PMS5003;33067;49.296;14.470;2023-12-20T14:36:44;3;3;
47079;PMS5003;33067;49.296;14.470;2023-12-20T14:39:09;3;3;
47079;PMS5003;33067;49.296;14.470;2023-12-20T14:41:35;4;4;
47079;PMS5003;33067;49.296;14.470;2023-12-20T14:44:00;4;3;
47079;PMS5003;33067;49.296;14.470;2023-12-20T14:46:26;6;4;
47079;PMS5003;33067;49.296;14.470;2023-12-20T14:48:51;29;24;
47079;PMS5003;33067;49.296;14.470;2023-12-20T14:51:17;14;12;
47079;PMS5003;33067;49.296;14.470;2023-12-20T14:53:42;3;3;
47079;PMS5003;33067;49.296;14.470;2023-12-20T14:56:08;7;7;
47079;PMS5003;33067;49.296;14.470;2023-12-20T14:58:33;8;7;
47079;PMS5003;33067;49.296;14.470;2023-12-20T15:00:59;8;7;
47079;PMS5003;33067;49.296;14.470;2023-12-20T15:03:25;9;8;
47079;PMS5003;33067;49.296;14.470;2023-12-20T15:05:50;17;14;
47079;PMS5003;33067;49.296;14.470;2023-12-20T15:08:15;8;8;
47079;PMS5003;33067;49.296;14.470;2023-12-20T15:10:41;4;4;
47079;PMS5003;33067;49.296;14.470;2023-12-20T15:13:06;6;6;
47079;PMS5003;33067;49.296;14.470;2023-12-20T15:15:32;11;7;
47079;PMS5003;33067;49.296;14.470;2023-12-20T15:17:57;14;12;
47079;PMS5003;33067;49.296;14.470;2023-12-20T15:20:23;11;11;
47079;PMS5003;33067;49.296;14.470;2023-12-20T15:22:48;6;6;
47079;PMS5003;33067;49.296;14.470;2023-12-20T15:25:13;3;3;
47079;PMS5003;33067;49.296;14.470;2023-12-20T15:27:39;6;6;
47079;PMS5003;33067;49.296;14.470;2023-12-20T15:30:05;8;6;
47079;PMS5003;33067;49.296;14.470;2023-12-20T15:32:30;4;4;
47079;PMS5003;33067;49.296;14.470;2023-12-20T15:34:55;9;6;
47079;PMS5003;33067;49.296;14.470;2023-12-20T15:37:21;7;7;
47079;PMS5003;33067;49.296;14.470;2023-12-20T15:39:46;12;9;
47079;PMS5003;33067;49.296;14.470;2023-12-20T15:42:12;14;11;
47079;PMS5003;33067;49.296;14.470;2023-12-20T15:44:38;11;11;
47079;PMS5003;33067;49.296;14.470;2023-12-20T15:47:04;12;9;
47079;PMS5003;33067;49.296;14.470;2023-12-20T15:49:29;11;9;
47079;PMS5003;33067;49.296;14.470;2023-12-20T15:51:54;14;11;
47079;PMS5003;33067;49.296;14.470;2023-12-20T15:54:20;21;18;
47079;PMS5003;33067;49.296;14.470;2023-12-20T15:56:46;27;23;
47079;PMS5003;33067;49.296;14.470;2023-12-20T15:59:11;9;9;
47079;PMS5003;33067;49.296;14.470;2023-12-20T16:01:37;19;18;
47079;PMS5003;33067;49.296;14.470;2023-12-20T16:04:02;17;12;
47079;PMS5003;33067;49.296;14.470;2023-12-20T16:06:28;12;9;
47079;PMS5003;33067;49.296;14.470;2023-12-20T16:08:53;4;4;